createdAt,value
2022-10-10T00:01:48.055Z,100.00
2022-10-10T00:04:17.027Z,100.00
2022-10-10T00:06:46.030Z,100.00
2022-10-10T00:09:14.963Z,100.00
2022-10-10T00:11:43.873Z,100.00
2022-10-10T00:14:14.176Z,100.00
2022-10-10T00:16:43.215Z,100.00
2022-10-10T00:19:12.306Z,100.00
2022-10-10T00:21:42.439Z,100.00
2022-10-10T00:24:11.435Z,100.00
2022-10-10T00:26:40.340Z,100.00
2022-10-10T00:29:09.337Z,100.00
2022-10-10T00:31:39.676Z,100.00
2022-10-10T00:34:08.633Z,100.00
2022-10-10T00:36:37.617Z,100.00
2022-10-10T00:39:06.576Z,100.00
2022-10-10T00:41:35.504Z,100.00
2022-10-10T00:44:07.349Z,100.00
2022-10-10T00:46:36.573Z,100.00
2022-10-10T00:49:11.404Z,100.00
2022-10-10T00:51:40.996Z,100.00
2022-10-10T00:54:13.536Z,100.00
2022-10-10T00:56:48.769Z,100.00
2022-10-10T00:59:19.588Z,100.00
2022-10-10T01:01:48.948Z,100.00
2022-10-10T01:04:34.814Z,100.00
2022-10-10T01:07:06.968Z,100.00
2022-10-10T01:09:38.748Z,100.00
2022-10-10T01:12:19.715Z,100.00
2022-10-10T01:14:54.769Z,100.00
2022-10-10T01:17:33.531Z,100.00
2022-10-10T01:20:42.123Z,100.00
2022-10-10T01:23:44.514Z,100.00
2022-10-10T01:26:39.128Z,100.00
2022-10-10T01:29:18.294Z,100.00
2022-10-10T01:31:52.265Z,100.00
2022-10-10T01:34:28.127Z,100.00
2022-10-10T01:37:02.918Z,100.00
2022-10-10T01:39:39.973Z,100.00
2022-10-10T01:42:15.678Z,100.00
2022-10-10T01:44:47.633Z,100.00
2022-10-10T01:47:16.678Z,100.00
2022-10-10T01:49:48.166Z,100.00
2022-10-10T01:52:29.437Z,100.00
2022-10-10T01:55:14.930Z,100.00
2022-10-10T01:57:58.561Z,99.94
2022-10-10T02:00:29.122Z,99.47
2022-10-10T02:03:05.639Z,99.10
2022-10-10T02:05:43.212Z,98.16
2022-10-10T02:08:16.050Z,97.88
2022-10-10T02:10:49.166Z,98.47
2022-10-10T02:13:19.256Z,98.27
2022-10-10T02:15:53.663Z,97.13
2022-10-10T02:18:26.925Z,97.90
2022-10-10T02:20:56.723Z,98.24
2022-10-10T02:23:26.526Z,97.29
2022-10-10T02:25:57.705Z,97.85
2022-10-10T02:28:32.755Z,97.37
2022-10-10T02:31:08.107Z,97.92
2022-10-10T02:33:52.781Z,98.08
2022-10-10T02:36:22.585Z,98.17
2022-10-10T02:38:53.892Z,98.29
2022-10-10T02:41:24.150Z,98.28
2022-10-10T02:43:53.758Z,99.19
2022-10-10T02:46:24.862Z,98.73
2022-10-10T02:48:54.470Z,98.25
2022-10-10T02:51:26.544Z,98.43
2022-10-10T02:53:58.630Z,97.85
2022-10-10T02:56:27.799Z,98.14
2022-10-10T02:58:57.460Z,98.51
2022-10-10T03:01:27.838Z,99.38
2022-10-10T03:03:56.829Z,98.83
2022-10-10T03:06:25.828Z,99.04
2022-10-10T03:08:54.791Z,98.98
2022-10-10T03:11:23.715Z,99.22
2022-10-10T03:13:52.676Z,98.99
2022-10-10T03:16:21.731Z,98.55
2022-10-10T03:18:52.073Z,98.76
2022-10-10T03:21:21.004Z,98.15
2022-10-10T03:23:49.942Z,98.98
2022-10-10T03:26:19.038Z,98.52
2022-10-10T03:28:47.965Z,99.11
2022-10-10T03:31:17.062Z,98.50
2022-10-10T03:33:46.050Z,99.05
2022-10-10T03:36:16.466Z,98.91
2022-10-10T03:38:45.449Z,97.85
2022-10-10T03:41:14.477Z,98.41
2022-10-10T03:43:43.420Z,98.76
2022-10-10T03:46:15.983Z,99.72
2022-10-10T03:48:45.416Z,98.95
2022-10-10T03:51:15.931Z,100.00
2022-10-10T03:53:44.933Z,100.00
2022-10-10T03:56:13.876Z,100.00
2022-10-10T03:58:42.808Z,100.00
2022-10-10T04:01:11.923Z,99.97
2022-10-10T04:03:41.051Z,100.00
2022-10-10T04:06:10.029Z,100.00
2022-10-10T04:08:40.354Z,100.00
2022-10-10T04:11:09.282Z,100.00
2022-10-10T04:13:38.224Z,100.00
2022-10-10T04:16:07.713Z,100.00
2022-10-10T04:18:36.651Z,100.00
2022-10-10T04:21:06.440Z,100.00
2022-10-10T04:23:35.407Z,100.00
2022-10-10T04:26:05.798Z,100.00
2022-10-10T04:28:34.862Z,100.00
2022-10-10T04:31:03.879Z,100.00
2022-10-10T04:33:32.798Z,100.00
2022-10-10T04:36:01.742Z,100.00
2022-10-10T04:38:30.681Z,100.00
2022-10-10T04:40:59.677Z,100.00
2022-10-10T04:43:30.154Z,100.00
2022-10-10T04:45:59.263Z,100.00
2022-10-10T04:48:28.479Z,100.00
2022-10-10T04:50:59.282Z,100.00
2022-10-10T04:53:28.403Z,100.00
2022-10-10T04:55:57.340Z,100.00
2022-10-10T04:58:26.423Z,100.00
2022-10-10T05:00:57.324Z,100.00
2022-10-10T05:03:26.890Z,100.00
2022-10-10T05:05:56.215Z,100.00
2022-10-10T05:08:25.266Z,100.00
2022-10-10T05:10:54.893Z,100.00
2022-10-10T05:13:23.856Z,100.00
2022-10-10T05:15:53.627Z,100.00
2022-10-10T05:18:24.151Z,100.00
2022-10-10T05:20:53.098Z,100.00
2022-10-10T05:23:22.037Z,100.00
2022-10-10T05:25:52.009Z,100.00
2022-10-10T05:28:21.204Z,100.00
2022-10-10T05:30:52.063Z,100.00
2022-10-10T05:33:21.074Z,100.00
2022-10-10T05:35:51.351Z,100.00
2022-10-10T05:38:20.272Z,100.00
2022-10-10T05:40:49.306Z,100.00
2022-10-10T05:43:18.334Z,100.00
2022-10-10T05:45:47.285Z,100.00
2022-10-10T05:48:16.272Z,100.00
2022-10-10T05:50:51.426Z,100.00
2022-10-10T05:53:20.396Z,100.00
2022-10-10T05:55:49.622Z,100.00
2022-10-10T05:58:18.766Z,100.00
2022-10-10T06:00:48.661Z,100.00
2022-10-10T06:03:18.008Z,100.00
2022-10-10T06:05:49.363Z,100.00
2022-10-10T06:08:19.665Z,100.00
2022-10-10T06:10:48.956Z,100.00
2022-10-10T06:13:24.092Z,100.00
2022-10-10T06:15:53.487Z,100.00
2022-10-10T06:18:22.504Z,100.00
2022-10-10T06:20:51.429Z,100.00
2022-10-10T06:23:21.930Z,100.00
2022-10-10T06:25:53.926Z,100.00
2022-10-10T06:28:23.084Z,100.00
2022-10-10T06:30:53.150Z,100.00
2022-10-10T06:33:22.116Z,100.00
2022-10-10T06:35:51.113Z,100.00
2022-10-10T06:38:21.413Z,100.00
2022-10-10T06:40:50.397Z,100.00
2022-10-10T06:43:19.582Z,98.69
2022-10-10T06:45:51.237Z,98.57
2022-10-10T06:48:20.213Z,98.13
2022-10-10T06:51:01.225Z,96.83
2022-10-10T06:53:31.547Z,95.94
2022-10-10T06:56:00.886Z,94.72
2022-10-10T06:58:31.101Z,91.44
2022-10-10T07:01:02.152Z,91.00
2022-10-10T07:03:32.262Z,92.11
2022-10-10T07:06:02.821Z,91.21
2022-10-10T07:08:33.208Z,91.83
2022-10-10T07:11:02.563Z,91.21
2022-10-10T07:13:31.723Z,91.17
2022-10-10T07:16:00.692Z,91.55
2022-10-10T07:18:30.097Z,90.11
2022-10-10T07:20:59.628Z,89.32
2022-10-10T07:23:29.474Z,89.07
2022-10-10T07:26:03.264Z,88.58
2022-10-10T07:28:32.757Z,89.40
2022-10-10T07:31:03.201Z,88.64
2022-10-10T07:33:36.880Z,87.66
2022-10-10T07:36:06.485Z,87.74
2022-10-10T07:38:35.867Z,88.01
2022-10-10T07:41:09.077Z,86.92
2022-10-10T07:43:38.459Z,85.60
2022-10-10T07:46:14.950Z,85.21
2022-10-10T07:48:43.976Z,84.65
2022-10-10T07:51:13.520Z,84.28
2022-10-10T07:53:44.099Z,84.48
2022-10-10T07:56:14.375Z,84.34
2022-10-10T07:58:43.379Z,83.87
2022-10-10T08:01:14.354Z,84.05
2022-10-10T08:03:43.509Z,82.74
2022-10-10T08:06:14.269Z,82.81
2022-10-10T08:08:50.747Z,82.25
2022-10-10T08:11:23.027Z,80.74
2022-10-10T08:13:52.190Z,81.25
2022-10-10T08:16:21.778Z,81.49
2022-10-10T08:18:50.738Z,81.09
2022-10-10T08:21:19.843Z,80.05
2022-10-10T08:23:48.814Z,79.22
2022-10-10T08:26:19.814Z,79.00
2022-10-10T08:28:50.121Z,78.08
2022-10-10T08:31:21.533Z,78.31
2022-10-10T08:33:52.564Z,78.80
2022-10-10T08:36:23.821Z,77.25
2022-10-10T08:38:57.337Z,77.71
2022-10-10T08:41:36.284Z,76.11
2022-10-10T08:44:15.186Z,74.55
2022-10-10T08:46:49.451Z,71.79
2022-10-10T08:49:25.222Z,71.54
2022-10-10T08:52:04.620Z,71.53
2022-10-10T08:54:35.581Z,70.96
2022-10-10T08:57:07.618Z,70.11
2022-10-10T08:59:41.608Z,69.52
2022-10-10T09:05:22.384Z,67.93
2022-10-10T09:08:08.441Z,66.58
2022-10-10T09:10:47.979Z,68.67
2022-10-10T09:13:30.777Z,67.12
2022-10-10T09:16:03.366Z,68.06
2022-10-10T09:18:45.155Z,67.50
2022-10-10T09:21:19.225Z,65.19
2022-10-10T09:23:54.835Z,65.49
2022-10-10T09:26:28.260Z,66.77
2022-10-10T09:29:01.903Z,66.16
2022-10-10T09:31:38.499Z,66.20
2022-10-10T09:34:16.030Z,65.60
2022-10-10T09:36:47.530Z,63.86
2022-10-10T09:39:24.132Z,65.46
2022-10-10T09:41:59.270Z,63.74
2022-10-10T09:44:28.750Z,63.40
2022-10-10T09:47:00.105Z,63.21
2022-10-10T09:49:30.627Z,62.58
2022-10-10T09:52:03.064Z,62.29
2022-10-10T09:54:32.144Z,62.99
2022-10-10T09:57:01.360Z,62.43
2022-10-10T09:59:42.389Z,60.55
2022-10-10T10:02:18.547Z,61.39
2022-10-10T10:04:48.636Z,60.29
2022-10-10T10:07:25.701Z,60.44
2022-10-10T10:09:57.018Z,60.83
2022-10-10T10:12:29.363Z,59.91
2022-10-10T10:15:05.181Z,62.51
2022-10-10T10:17:35.597Z,60.56
2022-10-10T10:20:10.663Z,58.92
2022-10-10T10:22:40.567Z,61.34
2022-10-10T10:25:32.848Z,61.53
2022-10-10T10:28:20.993Z,60.65
2022-10-10T10:30:53.187Z,60.09
2022-10-10T10:33:38.849Z,60.54
2022-10-10T10:36:19.712Z,61.09
2022-10-10T10:38:54.114Z,61.44
2022-10-10T10:41:30.662Z,59.94
2022-10-10T10:44:15.085Z,58.91
2022-10-10T10:46:59.205Z,58.63
2022-10-10T10:49:37.714Z,58.22
2022-10-10T10:52:42.343Z,58.16
2022-10-10T10:55:19.765Z,57.46
2022-10-10T11:01:23.351Z,56.35
2022-10-10T11:05:20.937Z,57.54
2022-10-10T11:07:18.267Z,55.41
2022-10-10T11:10:14.497Z,57.33
2022-10-10T11:12:55.414Z,55.63
2022-10-10T11:15:54.069Z,54.88
2022-10-10T11:18:25.081Z,56.17
2022-10-10T11:20:59.858Z,57.63
2022-10-10T11:23:35.280Z,58.36
2022-10-10T11:26:07.327Z,57.17
2022-10-10T11:28:43.999Z,54.56
2022-10-10T11:31:21.326Z,58.76
2022-10-10T11:33:56.254Z,58.69
2022-10-10T11:36:29.830Z,61.80
2022-10-10T11:39:06.443Z,60.30
2022-10-10T11:41:39.025Z,57.71
2022-10-10T11:44:12.726Z,55.30
2022-10-10T11:46:44.720Z,54.83
2022-10-10T11:49:20.905Z,57.24
2022-10-10T11:52:32.422Z,55.07
2022-10-10T11:55:11.251Z,55.50
2022-10-10T11:57:47.643Z,57.25
2022-10-10T12:00:18.989Z,58.77
2022-10-10T12:02:48.862Z,57.48
2022-10-10T12:05:26.198Z,56.81
2022-10-10T12:08:08.317Z,54.80
2022-10-10T12:10:44.244Z,55.85
2022-10-10T12:13:26.305Z,58.00
2022-10-10T12:15:57.885Z,58.45
2022-10-10T12:18:30.466Z,58.91
2022-10-10T12:21:11.211Z,57.46
2022-10-10T12:23:42.848Z,58.17
2022-10-10T12:26:18.293Z,58.86
2022-10-10T12:29:04.871Z,60.66
2022-10-10T12:31:36.164Z,60.47
2022-10-10T12:34:40.869Z,61.97
2022-10-10T12:37:25.871Z,62.30
2022-10-10T12:40:20.799Z,61.70
2022-10-10T12:43:24.952Z,62.16
2022-10-10T12:46:24.451Z,63.24
2022-10-10T12:49:19.350Z,61.27
2022-10-10T12:52:01.933Z,61.56
2022-10-10T12:54:38.920Z,62.00
2022-10-10T12:57:23.023Z,59.91
2022-10-10T12:59:53.629Z,60.92
2022-10-10T13:02:27.767Z,57.45
2022-10-10T13:04:59.769Z,58.23
2022-10-10T13:07:29.489Z,59.76
2022-10-10T13:10:08.352Z,61.62
2022-10-10T13:12:37.284Z,61.11
2022-10-10T13:15:21.383Z,62.05
2022-10-10T13:17:50.346Z,57.81
2022-10-10T13:20:31.504Z,58.51
2022-10-10T13:23:04.302Z,60.58
2022-10-10T13:25:34.741Z,61.58
2022-10-10T13:28:05.068Z,59.71
2022-10-10T13:30:38.628Z,59.41
2022-10-10T13:33:18.824Z,59.71
2022-10-10T13:35:49.188Z,59.32
2022-10-10T13:38:20.694Z,59.06
2022-10-10T13:40:49.992Z,58.18
2022-10-10T13:43:20.909Z,57.49
2022-10-10T13:45:58.790Z,57.94
2022-10-10T13:48:38.517Z,60.66
2022-10-10T13:51:10.900Z,62.53
2022-10-10T13:53:51.679Z,59.88
2022-10-10T13:56:27.661Z,61.15
2022-10-10T13:58:59.457Z,60.73
2022-10-10T14:01:39.557Z,60.97
2022-10-10T14:04:21.629Z,62.17
2022-10-10T14:07:00.459Z,62.79
2022-10-10T14:09:32.873Z,62.96
2022-10-10T14:12:03.662Z,64.52
2022-10-10T14:14:41.510Z,64.48
2022-10-10T14:17:13.019Z,64.13
2022-10-10T14:19:42.942Z,63.11
2022-10-10T14:22:12.014Z,63.49
2022-10-10T14:24:40.961Z,64.31
2022-10-10T14:27:16.216Z,63.74
2022-10-10T14:29:45.371Z,64.99
2022-10-10T14:32:17.590Z,64.78
2022-10-10T14:34:46.556Z,65.49
2022-10-10T14:37:20.820Z,65.07
2022-10-10T14:39:49.719Z,66.06
2022-10-10T14:42:20.063Z,65.80
2022-10-10T14:44:49.197Z,65.92
2022-10-10T14:47:21.451Z,64.60
2022-10-10T14:49:52.498Z,65.57
2022-10-10T14:52:21.403Z,65.55
2022-10-10T14:54:50.354Z,66.18
2022-10-10T14:57:22.315Z,64.48
2022-10-10T14:59:51.274Z,64.96
2022-10-10T15:02:23.290Z,65.41
2022-10-10T15:04:52.613Z,65.68
2022-10-10T15:07:21.510Z,64.96
2022-10-10T15:10:27.469Z,66.58
2022-10-10T15:12:42.534Z,66.71
2022-10-10T15:15:13.785Z,66.56
2022-10-10T15:17:44.322Z,66.58
2022-10-10T15:20:14.182Z,66.89
2022-10-10T15:22:43.401Z,66.36
2022-10-10T15:25:12.311Z,67.17
2022-10-10T15:27:41.341Z,67.64
2022-10-10T15:30:11.134Z,67.17
2022-10-10T15:32:41.040Z,67.52
2022-10-10T15:35:14.821Z,67.04
2022-10-10T15:37:44.286Z,66.87
2022-10-10T15:40:15.707Z,66.12
2022-10-10T15:42:44.661Z,66.98
2022-10-10T15:45:16.704Z,66.67
2022-10-10T15:47:51.720Z,67.79
2022-10-10T15:50:26.728Z,68.26
2022-10-10T15:52:55.933Z,67.31
2022-10-10T15:55:24.821Z,66.87
2022-10-10T15:57:53.820Z,67.46
2022-10-10T16:00:22.829Z,66.95
2022-10-10T16:02:51.730Z,68.01
2022-10-10T16:05:21.970Z,68.16
2022-10-10T16:07:53.576Z,68.22
2022-10-10T16:10:22.494Z,69.55
2022-10-10T16:12:51.648Z,69.62
2022-10-10T16:15:20.581Z,70.91
2022-10-10T16:17:49.688Z,71.29
2022-10-10T16:20:18.725Z,72.50
2022-10-10T16:22:48.965Z,73.45
2022-10-10T16:25:22.433Z,76.30
2022-10-10T16:27:52.625Z,77.98
2022-10-10T16:30:21.849Z,78.86
2022-10-10T16:32:50.798Z,81.18
2022-10-10T16:35:19.704Z,83.64
2022-10-10T16:37:50.012Z,86.18
2022-10-10T16:40:19.233Z,86.90
2022-10-10T16:42:48.188Z,88.38
2022-10-10T16:45:17.222Z,89.46
2022-10-10T16:47:46.234Z,91.77
2022-10-10T16:50:15.356Z,94.06
2022-10-10T16:52:44.354Z,95.15
2022-10-10T16:55:14.876Z,95.60
2022-10-10T16:57:43.840Z,96.69
2022-10-10T17:00:13.423Z,98.37
2022-10-10T17:02:42.936Z,99.65
2022-10-10T17:05:11.921Z,100.00
2022-10-10T17:07:40.839Z,100.00
2022-10-10T17:10:10.829Z,100.00
2022-10-10T17:12:41.375Z,100.00
2022-10-10T17:15:10.925Z,100.00
2022-10-10T17:17:40.156Z,100.00
2022-10-10T17:20:10.073Z,100.00
2022-10-10T17:22:40.879Z,100.00
2022-10-10T17:25:10.968Z,100.00
2022-10-10T17:27:43.438Z,100.00
2022-10-10T17:30:13.748Z,100.00
2022-10-10T17:32:43.376Z,100.00
2022-10-10T17:35:13.121Z,100.00
2022-10-10T17:37:42.076Z,100.00
2022-10-10T17:40:14.633Z,100.00
2022-10-10T17:42:45.035Z,100.00
2022-10-10T17:45:14.035Z,100.00
2022-10-10T17:47:43.137Z,100.00
2022-10-10T17:50:13.249Z,99.71
2022-10-10T17:52:42.226Z,99.15
2022-10-10T17:55:11.263Z,98.19
2022-10-10T17:57:40.240Z,97.22
2022-10-10T18:00:12.269Z,96.81
2022-10-10T18:02:41.306Z,96.38
2022-10-10T18:05:10.478Z,96.76
2022-10-10T18:07:39.464Z,95.74
2022-10-10T18:10:09.069Z,95.23
2022-10-10T18:12:38.067Z,96.24
2022-10-10T18:15:10.582Z,97.04
2022-10-10T18:17:39.590Z,97.91
2022-10-10T18:20:09.956Z,98.00
2022-10-10T18:22:38.937Z,98.63
2022-10-10T18:25:08.647Z,98.37
2022-10-10T18:27:38.357Z,99.20
2022-10-10T18:30:08.440Z,99.96
2022-10-10T18:32:38.898Z,100.00
2022-10-10T18:35:08.559Z,100.00
2022-10-10T18:37:37.852Z,100.00
2022-10-10T18:40:08.104Z,100.00
2022-10-10T18:42:37.949Z,100.00
2022-10-10T18:45:08.121Z,100.00
2022-10-10T18:47:38.883Z,100.00
2022-10-10T18:50:10.046Z,100.00
2022-10-10T18:52:39.150Z,100.00
2022-10-10T18:55:08.496Z,100.00
2022-10-10T18:57:38.886Z,100.00
2022-10-10T19:00:09.097Z,100.00
2022-10-10T19:02:39.482Z,100.00
2022-10-10T19:05:08.834Z,100.00
2022-10-10T19:07:37.863Z,100.00
2022-10-10T19:10:07.429Z,100.00
2022-10-10T19:12:36.624Z,100.00
2022-10-10T19:15:06.171Z,100.00
2022-10-10T19:17:37.829Z,100.00
2022-10-10T19:20:07.901Z,100.00
2022-10-10T19:22:37.515Z,100.00
2022-10-10T19:25:07.399Z,100.00
2022-10-10T19:27:37.150Z,100.00
2022-10-10T19:30:07.746Z,100.00
2022-10-10T19:32:38.437Z,100.00
2022-10-10T19:35:08.037Z,100.00
2022-10-10T19:37:37.398Z,100.00
2022-10-10T19:40:07.165Z,100.00
2022-10-10T19:42:36.228Z,100.00
2022-10-10T19:45:06.063Z,100.00
2022-10-10T19:47:35.509Z,100.00
2022-10-10T19:50:06.456Z,100.00
2022-10-10T19:52:35.639Z,100.00
2022-10-10T19:55:05.288Z,100.00
2022-10-10T19:57:34.429Z,100.00
2022-10-10T20:00:03.638Z,100.00
2022-10-10T20:02:43.894Z,100.00
2022-10-10T20:05:14.404Z,100.00
2022-10-10T20:07:44.046Z,100.00
2022-10-10T20:10:13.233Z,100.00
2022-10-10T20:12:42.259Z,100.00
2022-10-10T20:15:12.168Z,100.00
2022-10-10T20:17:45.249Z,100.00
2022-10-10T20:20:15.674Z,100.00
2022-10-10T20:22:45.015Z,100.00
2022-10-10T20:25:17.726Z,100.00
2022-10-10T20:27:46.875Z,100.00
2022-10-10T20:30:16.304Z,100.00
2022-10-10T20:32:45.404Z,100.00
2022-10-10T20:35:18.582Z,100.00
2022-10-10T20:37:47.849Z,100.00
2022-10-10T20:40:17.026Z,100.00
2022-10-10T20:42:46.175Z,100.00
2022-10-10T20:45:17.623Z,100.00
2022-10-10T20:47:46.809Z,100.00
2022-10-10T20:50:17.543Z,100.00
2022-10-10T20:52:46.785Z,100.00
2022-10-10T20:55:16.026Z,100.00
2022-10-10T20:57:45.072Z,100.00
2022-10-10T21:00:15.515Z,100.00
2022-10-10T21:02:44.599Z,100.00
2022-10-10T21:05:13.570Z,100.00
2022-10-10T21:07:45.812Z,100.00
2022-10-10T21:10:14.940Z,100.00
2022-10-10T21:12:43.944Z,100.00
2022-10-10T21:15:12.973Z,100.00
2022-10-10T21:17:42.111Z,100.00
2022-10-10T21:20:12.073Z,100.00
2022-10-10T21:22:41.074Z,100.00
2022-10-10T21:25:13.151Z,100.00
2022-10-10T21:27:42.172Z,100.00
2022-10-10T21:30:11.809Z,100.00
2022-10-10T21:32:40.848Z,100.00
2022-10-10T21:35:10.698Z,100.00
2022-10-10T21:37:39.701Z,100.00
2022-10-10T21:40:11.784Z,100.00
2022-10-10T21:42:40.879Z,100.00
2022-10-10T21:45:10.641Z,100.00
2022-10-10T21:47:42.163Z,100.00
2022-10-10T21:50:12.813Z,100.00
2022-10-10T21:52:41.776Z,100.00
2022-10-10T21:55:12.420Z,100.00
2022-10-10T21:57:41.375Z,100.00
2022-10-10T22:00:11.842Z,100.00
2022-10-10T22:02:41.067Z,100.00
2022-10-10T22:05:13.767Z,100.00
2022-10-10T22:07:44.775Z,100.00
2022-10-10T22:10:19.228Z,100.00
2022-10-10T22:12:48.431Z,100.00
2022-10-10T22:15:17.581Z,100.00
2022-10-10T22:17:46.586Z,100.00
2022-10-10T22:20:15.887Z,100.00
2022-10-10T22:22:45.166Z,100.00
2022-10-10T22:25:17.690Z,100.00
2022-10-10T22:27:47.059Z,100.00
2022-10-10T22:30:16.077Z,100.00
2022-10-10T22:32:45.000Z,100.00
2022-10-10T22:35:13.954Z,100.00
2022-10-10T22:37:42.885Z,100.00
2022-10-10T22:40:13.942Z,100.00
2022-10-10T22:42:42.883Z,100.00
2022-10-10T22:45:12.217Z,100.00
2022-10-10T22:47:41.150Z,100.00
2022-10-10T22:50:11.162Z,100.00
2022-10-10T22:52:40.766Z,100.00
2022-10-10T22:55:14.413Z,100.00
2022-10-10T22:57:47.682Z,100.00
2022-10-10T23:00:18.194Z,100.00
2022-10-10T23:02:47.301Z,100.00
2022-10-10T23:05:16.408Z,100.00
2022-10-10T23:07:45.388Z,100.00
2022-10-10T23:10:14.334Z,100.00
2022-10-10T23:12:43.394Z,100.00
2022-10-10T23:15:13.947Z,100.00
2022-10-10T23:17:42.913Z,100.00
2022-10-10T23:20:12.397Z,100.00
2022-10-10T23:22:41.347Z,100.00
2022-10-10T23:25:10.389Z,100.00
2022-10-10T23:27:39.387Z,100.00
2022-10-10T23:30:09.314Z,100.00
2022-10-10T23:32:39.657Z,100.00
2022-10-10T23:35:09.533Z,100.00
2022-10-10T23:37:38.561Z,100.00
2022-10-10T23:40:08.391Z,100.00
2022-10-10T23:42:37.385Z,100.00
2022-10-10T23:45:07.069Z,100.00
2022-10-10T23:47:36.030Z,100.00
2022-10-10T23:50:07.565Z,100.00
2022-10-10T23:52:36.676Z,100.00
2022-10-10T23:55:06.660Z,100.00
2022-10-10T23:57:35.627Z,100.00
